Time;durP1;ratioP1;P1;durP2;ratioP2;P2;SDS_P1;SDS_P2;PMS_P1;PMS_P2;Temp;Humidity;BMP_temperature;BMP_pressure;BME280_temperature;BME280_humidity;BME280_pressure;Samples;Min_cycle;Max_cycle;Signal;HPM_P1;HPM_P2
2021/03/13 00:00:59;;;;;;;9.07;6.45;;;4.60;98.30;;;;;;4239193;27;20229;-80
2021/03/13 00:03:01;;;;;;;13.68;6.75;;;4.60;98.30;;;;;;4236231;27;20291;-80
2021/03/13 00:05:04;;;;;;;7.50;6.25;;;4.60;98.30;;;;;;4240057;27;20227;-80
2021/03/13 00:07:06;;;;;;;7.90;5.45;;;4.70;98.30;;;;;;4244058;27;20298;-79
2021/03/13 00:09:08;;;;;;;9.50;5.93;;;4.60;98.30;;;;;;4239171;27;20230;-80
2021/03/13 00:11:11;;;;;;;7.22;5.60;;;4.60;98.30;;;;;;4240594;27;20225;-80
2021/03/13 00:13:13;;;;;;;8.30;5.43;;;4.60;98.30;;;;;;4242429;27;20317;-81
2021/03/13 00:15:15;;;;;;;7.03;5.50;;;4.60;98.30;;;;;;4240466;27;20227;-80
2021/03/13 00:17:18;;;;;;;7.00;5.35;;;4.60;98.30;;;;;;4241162;27;20238;-80
2021/03/13 00:19:20;;;;;;;7.18;4.80;;;4.60;98.30;;;;;;4243596;27;20230;-79
2021/03/13 00:21:23;;;;;;;6.60;5.90;;;4.60;98.30;;;;;;4240915;22;20283;-78
2021/03/13 00:23:25;;;;;;;7.47;5.82;;;4.60;98.30;;;;;;4185808;28;20222;-78
2021/03/13 00:25:28;;;;;;;6.75;5.22;;;4.60;98.30;;;;;;4191838;28;20233;-79
2021/03/13 00:27:30;;;;;;;8.85;5.40;;;4.60;98.30;;;;;;4195837;28;20294;-78
2021/03/13 00:29:48;;;;;;;7.82;5.68;;;4.60;98.30;;;;;;4186014;28;20229;-78
2021/03/13 00:31:53;;;;;;;5.22;4.45;;;4.50;98.30;;;;;;4190248;28;20270;-77
2021/03/13 00:33:56;;;;;;;8.50;4.93;;;4.50;98.30;;;;;;4185304;28;20274;-79
2021/03/13 00:35:58;;;;;;;6.13;4.45;;;4.50;98.30;;;;;;4183025;28;20228;-79
2021/03/13 00:38:01;;;;;;;5.13;4.63;;;4.50;98.30;;;;;;4187294;28;20549;-79
2021/03/13 00:40:05;;;;;;;6.22;4.40;;;4.50;98.30;;;;;;4190206;28;20239;-79
2021/03/13 00:42:07;;;;;;;6.38;3.90;;;4.50;98.30;;;;;;4181811;28;20233;-78
2021/03/13 00:44:09;;;;;;;5.60;4.55;;;4.40;98.30;;;;;;4185996;28;20238;-79
2021/03/13 00:46:11;;;;;;;5.07;4.32;;;4.40;98.30;;;;;;4180289;28;20697;-79
2021/03/13 00:48:14;;;;;;;4.85;4.45;;;4.40;98.30;;;;;;4183736;28;20298;-79
2021/03/13 00:50:20;;;;;;;5.90;5.22;;;4.30;98.30;;;;;;4184062;28;20264;-79
2021/03/13 00:52:21;;;;;;;6.55;4.55;;;4.30;98.30;;;;;;4186718;28;20262;-79
2021/03/13 00:54:23;;;;;;;4.65;4.05;;;4.30;98.30;;;;;;4190676;28;20267;-79
2021/03/13 00:56:25;;;;;;;10.18;5.43;;;4.30;98.30;;;;;;4187081;28;20232;-82
2021/03/13 00:58:27;;;;;;;7.53;5.00;;;4.30;98.30;;;;;;4187129;28;20318;-80
2021/03/13 01:00:30;;;;;;;7.00;5.22;;;4.30;98.30;;;;;;4185767;28;20221;-79
2021/03/13 01:02:32;;;;;;;7.50;5.35;;;4.20;98.30;;;;;;4189371;28;20270;-77
2021/03/13 01:04:34;;;;;;;6.53;5.32;;;4.20;98.30;;;;;;4183742;28;20279;-78
2021/03/13 01:06:36;;;;;;;4.80;4.40;;;4.20;98.30;;;;;;4181076;28;20226;-78
2021/03/13 01:08:38;;;;;;;9.13;5.18;;;4.20;98.30;;;;;;4183676;28;20279;-77
2021/03/13 01:10:40;;;;;;;6.47;4.10;;;4.20;98.30;;;;;;4187673;28;20232;-77
2021/03/13 01:12:43;;;;;;;5.75;4.78;;;4.20;98.30;;;;;;4186348;28;20229;-78
2021/03/13 01:14:45;;;;;;;8.90;5.60;;;4.20;98.30;;;;;;4179539;28;20240;-78
2021/03/13 01:16:47;;;;;;;9.15;5.38;;;4.20;98.30;;;;;;4179692;28;20241;-77
2021/03/13 01:18:49;;;;;;;16.98;9.85;;;4.20;98.30;;;;;;4178717;28;20229;-80
2021/03/13 01:20:52;;;;;;;6.88;4.93;;;4.20;98.30;;;;;;4179478;28;20241;-77
2021/03/13 01:22:55;;;;;;;5.35;4.68;;;4.20;98.30;;;;;;4188256;28;20226;-78
2021/03/13 01:24:57;;;;;;;7.35;5.13;;;4.20;98.30;;;;;;4188079;28;20233;-78
2021/03/13 01:26:59;;;;;;;5.55;4.68;;;4.20;98.30;;;;;;4187297;28;20233;-79
2021/03/13 01:29:01;;;;;;;6.60;5.13;;;4.20;98.30;;;;;;4187674;28;20703;-77
2021/03/13 01:31:03;;;;;;;4.70;3.55;;;4.20;98.30;;;;;;4184986;28;20229;-78
2021/03/13 01:33:05;;;;;;;5.07;4.55;;;4.20;98.30;;;;;;4184726;28;20324;-77
2021/03/13 01:35:09;;;;;;;6.65;5.28;;;4.10;98.30;;;;;;4184653;28;20237;-77
2021/03/13 01:37:13;;;;;;;5.10;4.50;;;4.10;98.30;;;;;;4189430;28;20257;-78
2021/03/13 01:39:16;;;;;;;7.45;4.60;;;4.10;98.30;;;;;;4184584;28;20725;-77
2021/03/13 01:41:18;;;;;;;5.60;4.40;;;4.10;98.30;;;;;;4183095;28;20558;-82
2021/03/13 01:43:20;;;;;;;8.15;4.28;;;4.10;98.30;;;;;;4186781;28;20226;-78
2021/03/13 01:45:23;;;;;;;4.20;3.80;;;4.10;98.30;;;;;;4183810;28;20929;-77
2021/03/13 01:47:28;;;;;;;5.07;4.30;;;4.10;98.30;;;;;;4184203;28;20775;-78
2021/03/13 01:49:32;;;;;;;6.88;4.40;;;4.00;98.30;;;;;;4190414;28;20266;-78
2021/03/13 01:51:34;;;;;;;4.90;4.10;;;4.00;98.30;;;;;;4187552;28;20229;-78
2021/03/13 01:53:36;;;;;;;8.20;4.75;;;4.10;98.30;;;;;;4186687;28;20315;-78
2021/03/13 01:55:41;;;;;;;5.30;4.45;;;4.10;98.30;;;;;;4185956;28;20233;-78
2021/03/13 01:57:43;;;;;;;5.15;3.75;;;4.10;98.30;;;;;;4183615;28;20272;-78
2021/03/13 01:59:45;;;;;;;7.30;3.80;;;4.10;98.30;;;;;;4180255;28;20232;-78
2021/03/13 02:01:48;;;;;;;5.40;4.43;;;4.00;98.30;;;;;;4185257;28;20229;-78
2021/03/13 02:03:50;;;;;;;4.88;4.28;;;4.00;98.30;;;;;;4187177;28;20275;-77
2021/03/13 02:05:54;;;;;;;6.85;4.30;;;4.00;98.30;;;;;;4186417;28;20711;-77
2021/03/13 02:08:02;;;;;;;6.97;4.20;;;4.00;98.30;;;;;;4181840;28;20346;-79
2021/03/13 02:10:12;;;;;;;7.22;4.28;;;3.90;98.30;;;;;;4187176;28;20864;-79
2021/03/13 02:12:28;;;;;;;5.78;4.50;;;4.00;98.30;;;;;;4181525;28;20236;-77
2021/03/13 02:14:40;;;;;;;5.07;3.65;;;3.90;98.30;;;;;;4188469;28;20232;-80
2021/03/13 02:16:48;;;;;;;7.32;4.28;;;4.00;98.30;;;;;;4184481;28;20311;-78
2021/03/13 02:19:02;;;;;;;5.43;4.10;;;3.90;98.30;;;;;;4180598;28;20233;-78
2021/03/13 02:21:14;;;;;;;7.70;4.20;;;3.90;98.30;;;;;;4183379;28;20244;-78
2021/03/13 02:23:20;;;;;;;5.90;4.20;;;4.00;98.30;;;;;;4185422;28;20225;-78
2021/03/13 02:25:50;;;;;;;4.28;3.88;;;4.00;98.30;;;;;;4186856;28;20237;-78
2021/03/13 02:28:03;;;;;;;9.13;5.32;;;4.00;98.30;;;;;;4185871;28;20301;-78
2021/03/13 02:30:08;;;;;;;10.98;3.95;;;4.00;98.30;;;;;;4183784;28;20233;-79
2021/03/13 02:32:21;;;;;;;4.57;3.10;;;4.00;98.30;;;;;;4184039;28;20286;-79
2021/03/13 02:34:27;;;;;;;6.13;3.50;;;4.00;98.30;;;;;;4183741;28;20595;-79
2021/03/13 02:36:31;;;;;;;7.93;3.50;;;4.00;98.30;;;;;;4181187;28;20229;-79
2021/03/13 02:38:39;;;;;;;6.88;3.70;;;4.00;98.30;;;;;;4179001;28;20233;-79
2021/03/13 02:40:44;;;;;;;5.75;3.28;;;4.00;98.30;;;;;;4183658;28;20693;-78
2021/03/13 02:42:52;;;;;;;4.65;3.80;;;4.00;98.30;;;;;;4181507;28;20235;-78
2021/03/13 02:44:54;;;;;;;8.18;3.97;;;4.00;98.30;;;;;;4186202;28;20231;-79
2021/03/13 02:46:57;;;;;;;5.55;3.55;;;4.00;98.30;;;;;;4181927;28;20229;-78
2021/03/13 02:49:01;;;;;;;15.18;4.40;;;4.00;98.30;;;;;;4182749;28;20236;-78
2021/03/13 02:51:04;;;;;;;6.60;4.53;;;4.00;98.30;;;;;;4184583;28;20704;-78
2021/03/13 02:53:07;;;;;;;12.07;4.15;;;4.00;98.30;;;;;;4183915;28;20703;-79
2021/03/13 02:55:13;;;;;;;10.00;4.97;;;4.00;98.30;;;;;;4181978;28;20257;-79
2021/03/13 02:57:19;;;;;;;6.90;4.22;;;4.00;98.30;;;;;;4189750;28;20233;-79
2021/03/13 02:59:22;;;;;;;6.13;4.90;;;4.00;98.30;;;;;;4189064;28;20239;-79
2021/03/13 03:01:40;;;;;;;11.45;6.25;;;4.10;98.30;;;;;;4190934;28;20232;-78
2021/03/13 03:03:44;;;;;;;9.00;6.15;;;4.10;98.30;;;;;;4187033;28;20235;-78
2021/03/13 03:05:48;;;;;;;10.48;6.90;;;4.10;98.30;;;;;;4193163;28;20232;-79
2021/03/13 03:07:52;;;;;;;6.80;5.95;;;4.10;98.30;;;;;;4193717;28;20232;-79
2021/03/13 03:09:55;;;;;;;10.10;6.43;;;4.10;98.30;;;;;;4190862;28;20837;-78
2021/03/13 03:11:58;;;;;;;11.27;7.05;;;4.10;98.30;;;;;;4192055;28;21129;-79
2021/03/13 03:14:01;;;;;;;8.63;6.88;;;4.10;98.30;;;;;;4190964;28;20364;-79
2021/03/13 03:16:05;;;;;;;9.70;6.78;;;4.10;98.30;;;;;;4189215;28;20308;-79
2021/03/13 03:18:13;;;;;;;14.43;7.40;;;4.20;98.30;;;;;;4192234;28;20383;-79
2021/03/13 03:20:17;;;;;;;10.82;6.40;;;4.20;98.30;;;;;;4186660;28;20235;-79
2021/03/13 03:22:19;;;;;;;8.23;5.55;;;4.20;98.30;;;;;;4189254;28;20912;-79
2021/03/13 03:24:21;;;;;;;10.88;6.30;;;4.20;98.30;;;;;;4191229;28;20315;-77
2021/03/13 03:26:23;;;;;;;13.85;7.70;;;4.20;98.30;;;;;;4181546;28;20272;-78
2021/03/13 03:28:26;;;;;;;10.82;6.18;;;4.10;98.30;;;;;;4194168;28;20264;-77
2021/03/13 03:30:30;;;;;;;9.00;6.60;;;4.10;98.30;;;;;;4189062;28;20234;-79
2021/03/13 03:32:32;;;;;;;11.35;6.32;;;4.10;98.30;;;;;;4183075;28;20244;-78
2021/03/13 03:34:36;;;;;;;9.95;6.30;;;4.10;98.30;;;;;;4187458;28;20232;-78
2021/03/13 03:36:39;;;;;;;8.10;5.70;;;4.10;98.30;;;;;;4188456;28;20232;-79
2021/03/13 03:38:41;;;;;;;13.48;6.78;;;4.20;98.30;;;;;;4188770;28;20235;-79
2021/03/13 03:40:44;;;;;;;13.70;6.40;;;4.10;98.30;;;;;;4187938;28;20228;-79
2021/03/13 03:42:50;;;;;;;10.25;7.10;;;4.20;98.30;;;;;;4194091;28;20261;-79
2021/03/13 03:44:54;;;;;;;21.23;8.82;;;4.20;98.30;;;;;;4186082;28;20239;-79
2021/03/13 03:46:58;;;;;;;11.68;6.43;;;4.20;98.30;;;;;;4186144;28;20359;-79
2021/03/13 03:49:03;;;;;;;13.90;8.50;;;4.10;98.30;;;;;;4191280;28;20263;-79
2021/03/13 03:51:10;;;;;;;10.50;7.50;;;4.10;98.30;;;;;;4187483;28;20228;-78
2021/03/13 03:53:17;;;;;;;12.45;8.18;;;4.10;98.30;;;;;;4190398;28;20229;-79
2021/03/13 03:55:20;;;;;;;12.88;8.02;;;4.20;98.30;;;;;;4184966;28;20627;-79
2021/03/13 03:57:23;;;;;;;16.08;9.00;;;4.20;98.30;;;;;;4183578;28;20279;-79
2021/03/13 03:59:27;;;;;;;16.35;8.80;;;4.20;98.30;;;;;;4186641;28;20286;-79
2021/03/13 04:01:30;;;;;;;12.38;8.18;;;4.20;98.30;;;;;;4180849;28;20229;-79
2021/03/13 04:03:33;;;;;;;21.33;8.30;;;4.20;98.30;;;;;;4190933;28;20320;-78
2021/03/13 04:05:36;;;;;;;13.98;8.10;;;4.30;98.30;;;;;;4188428;28;20240;-78
2021/03/13 04:07:39;;;;;;;13.77;7.93;;;4.30;98.30;;;;;;4189080;28;20969;-78
2021/03/13 04:09:43;;;;;;;14.57;7.95;;;4.30;98.30;;;;;;4188007;28;20225;-79
2021/03/13 04:11:46;;;;;;;16.00;8.20;;;4.30;98.30;;;;;;4189290;28;20229;-79
2021/03/13 04:13:50;;;;;;;17.17;9.43;;;4.40;98.30;;;;;;4191539;28;20245;-78
2021/03/13 04:15:52;;;;;;;16.30;7.93;;;4.40;98.30;;;;;;4184556;28;20347;-78
2021/03/13 04:17:54;;;;;;;12.80;7.75;;;4.40;98.30;;;;;;4186061;28;20257;-78
2021/03/13 04:19:57;;;;;;;16.10;7.55;;;4.50;98.30;;;;;;4187718;28;20218;-79
2021/03/13 04:21:59;;;;;;;15.80;9.95;;;4.50;98.30;;;;;;4186224;28;20258;-79
2021/03/13 04:24:02;;;;;;;24.88;11.57;;;4.50;98.30;;;;;;4190807;28;20313;-78
2021/03/13 04:26:06;;;;;;;13.23;8.50;;;4.50;98.30;;;;;;4182896;28;20287;-78
2021/03/13 04:28:09;;;;;;;18.20;10.95;;;4.50;98.30;;;;;;4190292;28;20226;-78
2021/03/13 04:30:14;;;;;;;21.60;10.15;;;4.50;98.30;;;;;;4180916;28;20240;-78
2021/03/13 04:32:17;;;;;;;16.95;9.10;;;4.50;98.30;;;;;;4182842;28;20218;-78
2021/03/13 04:34:19;;;;;;;18.45;9.48;;;4.50;98.30;;;;;;4188766;28;20268;-79
2021/03/13 04:36:21;;;;;;;17.30;9.55;;;4.50;98.30;;;;;;4187907;28;20680;-79
2021/03/13 04:38:24;;;;;;;13.65;8.93;;;4.40;98.30;;;;;;4188099;28;20228;-78
2021/03/13 04:40:26;;;;;;;14.38;9.25;;;4.40;98.30;;;;;;4189527;28;20238;-79
2021/03/13 04:42:30;;;;;;;17.48;10.75;;;4.30;98.30;;;;;;4181137;28;20648;-78
2021/03/13 04:44:33;;;;;;;13.60;7.97;;;4.30;98.30;;;;;;4183676;28;20692;-79
2021/03/13 04:46:36;;;;;;;18.83;9.43;;;4.30;98.30;;;;;;4181349;28;20241;-80
2021/03/13 04:48:38;;;;;;;16.00;9.82;;;4.30;98.30;;;;;;4180344;28;20237;-79
2021/03/13 04:50:41;;;;;;;17.33;9.65;;;4.40;98.30;;;;;;4186336;28;20236;-79
2021/03/13 04:52:43;;;;;;;18.08;8.50;;;4.30;98.30;;;;;;4186566;28;20221;-79
2021/03/13 04:54:45;;;;;;;23.25;9.90;;;4.30;98.30;;;;;;4181864;28;20232;-78
2021/03/13 04:56:47;;;;;;;15.65;9.30;;;4.30;98.30;;;;;;4183194;28;20233;-79
2021/03/13 04:58:50;;;;;;;15.05;9.48;;;4.30;98.30;;;;;;4191162;28;20312;-81
2021/03/13 05:00:52;;;;;;;19.48;9.18;;;4.30;98.30;;;;;;4181245;28;20249;-79
2021/03/13 05:03:11;;;;;;;15.90;10.25;;;4.30;98.30;;;;;;4184618;28;20646;-80
2021/03/13 05:05:13;;;;;;;15.32;12.23;;;4.20;98.30;;;;;;4185258;28;20236;-80
2021/03/13 05:07:15;;;;;;;20.20;10.10;;;4.20;98.30;;;;;;4187049;28;20311;-78
2021/03/13 05:09:17;;;;;;;21.13;10.75;;;4.20;98.30;;;;;;4188130;28;20233;-79
2021/03/13 05:11:19;;;;;;;14.30;9.07;;;4.30;98.30;;;;;;4188647;28;20677;-80
2021/03/13 05:13:21;;;;;;;20.65;12.00;;;4.20;98.30;;;;;;4186676;28;20248;-79
2021/03/13 05:15:24;;;;;;;16.10;11.35;;;4.20;98.30;;;;;;4183845;28;20226;-79
2021/03/13 05:17:26;;;;;;;17.80;11.15;;;4.20;98.30;;;;;;4187496;28;20256;-79
2021/03/13 05:19:28;;;;;;;20.08;12.10;;;4.20;98.30;;;;;;4184408;28;20679;-79
2021/03/13 05:21:30;;;;;;;14.85;10.35;;;4.20;98.30;;;;;;4184784;28;20232;-79
2021/03/13 05:23:32;;;;;;;17.88;10.95;;;4.20;98.30;;;;;;4185743;28;20224;-78
2021/03/13 05:25:34;;;;;;;16.48;11.52;;;4.10;98.30;;;;;;4183675;28;20220;-80
2021/03/13 05:27:39;;;;;;;20.58;10.82;;;4.10;98.30;;;;;;4186082;28;20704;-80
2021/03/13 05:29:41;;;;;;;15.77;10.48;;;4.20;98.30;;;;;;4186937;28;20230;-78
2021/03/13 05:31:44;;;;;;;15.80;10.05;;;4.20;98.30;;;;;;4187831;28;20226;-79
2021/03/13 05:33:46;;;;;;;16.92;11.48;;;4.20;98.30;;;;;;4185220;28;20271;-80
2021/03/13 05:35:48;;;;;;;19.85;12.57;;;4.20;98.30;;;;;;4184805;28;20312;-79
2021/03/13 05:37:50;;;;;;;20.00;11.55;;;4.10;98.30;;;;;;4188638;28;20277;-80
2021/03/13 05:39:52;;;;;;;20.77;13.23;;;4.20;98.30;;;;;;4189602;28;20881;-80
2021/03/13 05:41:54;;;;;;;25.33;15.05;;;4.20;98.30;;;;;;4188817;28;20248;-79
2021/03/13 05:44:00;;;;;;;21.88;13.05;;;4.20;98.30;;;;;;4191659;28;20316;-78
2021/03/13 05:46:02;;;;;;;22.25;12.90;;;4.20;98.30;;;;;;4181782;28;20238;-80
2021/03/13 05:48:08;;;;;;;25.65;13.25;;;4.30;98.30;;;;;;4188418;28;20229;-78
2021/03/13 05:50:12;;;;;;;23.83;16.52;;;4.20;98.30;;;;;;4183282;28;20716;-79
2021/03/13 05:52:19;;;;;;;15.13;11.40;;;4.30;98.30;;;;;;4181081;28;20638;-78
2021/03/13 05:54:21;;;;;;;22.50;14.65;;;4.30;98.30;;;;;;4188015;28;20231;-78
2021/03/13 05:56:23;;;;;;;19.38;13.95;;;4.30;98.30;;;;;;4185765;28;20316;-78
2021/03/13 05:58:27;;;;;;;16.48;12.85;;;4.30;98.30;;;;;;4185227;28;20319;-78
2021/03/13 06:00:29;;;;;;;24.15;17.55;;;4.30;98.30;;;;;;4184892;28;20225;-79
2021/03/13 06:02:31;;;;;;;21.15;16.10;;;4.30;98.30;;;;;;4186239;28;20327;-78
2021/03/13 06:04:34;;;;;;;21.90;15.27;;;4.30;98.30;;;;;;4182487;28;20225;-78
2021/03/13 06:06:46;;;;;;;19.67;13.35;;;4.40;98.30;;;;;;4188216;28;20708;-78
2021/03/13 06:08:48;;;;;;;23.73;16.02;;;4.40;98.30;;;;;;4187195;28;20240;-78
2021/03/13 06:10:50;;;;;;;28.70;17.02;;;4.50;98.30;;;;;;4182227;28;20799;-78
2021/03/13 06:12:52;;;;;;;24.38;16.05;;;4.50;98.30;;;;;;4190918;28;20785;-78
2021/03/13 06:14:55;;;;;;;30.30;15.88;;;4.40;98.30;;;;;;4189411;28;20305;-78
2021/03/13 06:16:58;;;;;;;26.43;16.20;;;4.50;98.30;;;;;;4186597;28;20770;-78
2021/03/13 06:19:00;;;;;;;26.67;15.23;;;4.50;98.30;;;;;;4185728;28;20546;-79
2021/03/13 06:21:27;;;;;;;27.20;13.40;;;4.50;98.30;;;;;;4227232;22;20234;-76
2021/03/13 06:23:33;;;;;;;29.10;16.52;;;4.50;98.30;;;;;;4203583;28;20479;-79
2021/03/13 06:25:37;;;;;;;26.92;18.02;;;4.50;98.30;;;;;;4205595;28;20235;-79
2021/03/13 06:27:39;;;;;;;26.17;15.20;;;4.50;98.30;;;;;;4205833;28;20276;-79
2021/03/13 06:29:41;;;;;;;21.73;12.98;;;4.70;98.30;;;;;;4206944;28;20228;-80
2021/03/13 06:31:43;;;;;;;19.05;13.18;;;4.70;98.30;;;;;;4207252;28;20316;-80
2021/03/13 06:33:45;;;;;;;24.73;15.25;;;4.60;98.30;;;;;;4208249;28;20235;-80
2021/03/13 06:35:48;;;;;;;29.08;13.25;;;4.70;98.30;;;;;;4208474;28;20306;-79
2021/03/13 06:37:52;;;;;;;23.58;12.75;;;4.70;98.30;;;;;;4203249;28;20243;-80
2021/03/13 06:39:56;;;;;;;25.55;13.20;;;4.70;98.30;;;;;;4209509;28;20232;-79
2021/03/13 06:42:18;;;;;;;21.83;13.65;;;4.70;98.30;;;;;;4206521;28;20227;-79
2021/03/13 06:44:20;;;;;;;21.88;13.80;;;4.70;98.30;;;;;;4203599;28;20315;-79
2021/03/13 06:46:29;;;;;;;21.63;12.63;;;4.70;98.30;;;;;;4205470;28;20302;-79
2021/03/13 06:48:34;;;;;;;22.23;13.65;;;4.80;98.30;;;;;;4203139;28;20248;-79
2021/03/13 06:50:36;;;;;;;26.83;12.20;;;4.80;98.30;;;;;;4203201;28;20235;-79
2021/03/13 06:52:39;;;;;;;23.27;13.48;;;4.80;98.30;;;;;;4212951;28;20263;-79
2021/03/13 06:54:42;;;;;;;24.17;12.43;;;4.80;98.30;;;;;;4210431;28;20310;-79
2021/03/13 06:56:45;;;;;;;22.00;13.07;;;4.80;98.30;;;;;;4206371;28;20300;-79
2021/03/13 06:58:47;;;;;;;28.75;15.90;;;4.80;98.30;;;;;;4205213;28;20259;-79
2021/03/13 07:00:49;;;;;;;20.15;12.57;;;4.80;98.30;;;;;;4206519;28;20236;-79
2021/03/13 07:02:52;;;;;;;28.33;13.77;;;4.90;98.30;;;;;;4202616;28;20746;-79
2021/03/13 07:05:07;;;;;;;24.25;15.30;;;4.90;98.30;;;;;;4210846;28;20246;-79
2021/03/13 07:07:11;;;;;;;22.15;13.73;;;4.90;98.30;;;;;;4205242;28;20260;-79
2021/03/13 07:09:13;;;;;;;19.88;12.65;;;4.90;98.30;;;;;;4208180;28;20224;-79
2021/03/13 07:11:23;;;;;;;19.57;11.47;;;4.90;98.30;;;;;;4205625;28;20267;-79
2021/03/13 07:13:32;;;;;;;16.25;10.43;;;4.90;98.30;;;;;;4204433;28;20497;-79
2021/03/13 07:15:34;;;;;;;18.13;10.93;;;4.90;98.30;;;;;;4206047;28;20247;-79
2021/03/13 07:17:36;;;;;;;21.88;10.65;;;4.90;98.30;;;;;;4204202;28;20347;-79
2021/03/13 07:19:38;;;;;;;18.33;10.23;;;4.90;98.30;;;;;;4201413;28;20293;-79
2021/03/13 07:21:42;;;;;;;16.80;9.80;;;4.90;98.30;;;;;;4202254;28;20232;-79
2021/03/13 07:23:45;;;;;;;20.05;12.10;;;4.90;98.30;;;;;;4204485;28;20606;-79
2021/03/13 07:25:50;;;;;;;13.07;9.23;;;4.90;98.30;;;;;;4206791;28;20327;-78
2021/03/13 07:27:55;;;;;;;18.30;9.70;;;4.90;98.30;;;;;;4208570;28;20523;-78
2021/03/13 07:29:58;;;;;;;18.38;9.25;;;4.90;98.30;;;;;;4206397;28;20544;-78
2021/03/13 07:32:02;;;;;;;12.20;8.40;;;4.90;98.30;;;;;;4208940;28;20232;-78
2021/03/13 07:34:08;;;;;;;18.92;12.40;;;4.90;98.30;;;;;;4203486;28;20964;-78
2021/03/13 07:36:16;;;;;;;15.20;10.00;;;4.90;98.30;;;;;;4204630;28;20262;-78
2021/03/13 07:38:21;;;;;;;22.10;9.20;;;4.90;98.30;;;;;;4204099;28;20487;-78
2021/03/13 07:40:24;;;;;;;15.30;9.05;;;4.90;98.30;;;;;;4202172;28;20224;-78
2021/03/13 07:42:27;;;;;;;17.27;10.93;;;4.80;98.30;;;;;;4207401;28;20235;-79
2021/03/13 07:44:30;;;;;;;16.38;11.82;;;4.80;98.30;;;;;;4204125;28;20519;-79
2021/03/13 07:46:33;;;;;;;14.05;8.60;;;4.80;98.30;;;;;;4197651;28;20233;-79
2021/03/13 07:48:36;;;;;;;13.00;8.63;;;4.80;98.30;;;;;;4209019;28;20232;-79
2021/03/13 07:50:40;;;;;;;15.48;8.57;;;4.80;98.30;;;;;;4198686;28;20315;-79
2021/03/13 07:52:43;;;;;;;13.98;9.02;;;4.70;98.30;;;;;;4209915;28;20303;-79
2021/03/13 07:54:47;;;;;;;15.25;8.57;;;4.80;98.30;;;;;;4210913;28;20294;-78
2021/03/13 07:56:49;;;;;;;13.38;9.90;;;4.80;98.30;;;;;;4204110;28;20232;-78
2021/03/13 07:58:51;;;;;;;13.70;8.67;;;4.70;98.30;;;;;;4197703;28;20614;-79
2021/03/13 08:00:56;;;;;;;12.23;7.85;;;4.70;98.30;;;;;;4206581;28;20874;-79
2021/03/13 08:02:58;;;;;;;10.90;7.80;;;4.70;98.30;;;;;;4200346;28;20283;-79
2021/03/13 08:05:03;;;;;;;15.80;7.17;;;4.80;98.30;;;;;;4203174;28;20319;-79
2021/03/13 08:07:05;;;;;;;13.63;9.10;;;4.70;98.30;;;;;;4201036;28;20581;-79
2021/03/13 08:09:22;;;;;;;10.43;7.40;;;4.70;98.30;;;;;;4202841;28;20276;-79
2021/03/13 08:11:28;;;;;;;12.07;7.03;;;4.80;98.30;;;;;;4201684;28;20232;-79
2021/03/13 08:13:53;;;;;;;7.65;6.15;;;4.70;98.30;;;;;;4204307;28;20695;-79
2021/03/13 08:16:04;;;;;;;11.02;7.45;;;4.70;98.30;;;;;;4204493;28;20236;-79
2021/03/13 08:18:08;;;;;;;10.32;6.03;;;4.70;98.30;;;;;;4208346;28;20235;-78
2021/03/13 08:20:12;;;;;;;8.57;5.85;;;4.80;98.30;;;;;;4202975;28;20229;-78
2021/03/13 08:22:18;;;;;;;14.43;6.75;;;4.70;98.30;;;;;;4208514;28;20236;-78
2021/03/13 08:24:40;;;;;;;7.82;5.65;;;4.70;98.30;;;;;;4192548;28;20319;-78
2021/03/13 08:27:06;;;;;;;8.20;6.57;;;4.70;98.30;;;;;;4204031;28;20316;-78
2021/03/13 08:29:09;;;;;;;8.53;6.10;;;4.70;98.30;;;;;;4206941;28;20233;-78
2021/03/13 08:31:37;;;;;;;7.68;6.47;;;4.70;98.30;;;;;;4204024;28;20481;-79
2021/03/13 08:33:39;;;;;;;7.72;6.93;;;4.70;98.30;;;;;;4191772;28;20983;-79
2021/03/13 08:35:52;;;;;;;8.45;6.22;;;4.70;98.30;;;;;;4202938;28;20232;-79
2021/03/13 08:37:53;;;;;;;6.55;5.10;;;4.70;98.30;;;;;;4203066;28;20271;-79
2021/03/13 08:40:24;;;;;;;5.97;4.45;;;4.70;98.30;;;;;;4209492;28;20250;-79
2021/03/13 08:42:33;;;;;;;5.40;4.50;;;4.70;98.30;;;;;;4200484;28;20239;-79
2021/03/13 08:44:37;;;;;;;6.85;6.15;;;4.70;98.30;;;;;;4208401;28;20224;-79
2021/03/13 08:46:47;;;;;;;4.95;4.10;;;4.70;98.30;;;;;;4211475;28;20726;-79
2021/03/13 08:48:58;;;;;;;7.60;4.35;;;4.70;98.30;;;;;;4202549;28;20315;-79
2021/03/13 08:50:59;;;;;;;5.28;4.78;;;4.70;98.30;;;;;;4197475;28;20240;-79
2021/03/13 08:53:31;;;;;;;4.85;3.80;;;4.70;98.30;;;;;;4206781;28;20228;-80
2021/03/13 08:55:33;;;;;;;5.55;4.57;;;4.80;98.30;;;;;;4199505;28;20230;-80
2021/03/13 08:57:44;;;;;;;5.07;3.95;;;4.80;98.30;;;;;;4204923;28;20880;-80
2021/03/13 09:00:00;;;;;;;6.28;5.28;;;4.80;98.30;;;;;;4201932;28;20293;-80
2021/03/13 09:02:06;;;;;;;5.10;4.38;;;4.80;98.30;;;;;;4207201;28;20224;-80
2021/03/13 09:04:09;;;;;;;6.50;5.40;;;4.80;98.30;;;;;;4200550;28;20823;-79
2021/03/13 09:06:19;;;;;;;4.65;3.80;;;4.90;98.30;;;;;;4199376;28;20220;-79
2021/03/13 09:08:21;;;;;;;4.78;4.18;;;4.90;98.30;;;;;;4199561;28;20272;-79
2021/03/13 09:10:24;;;;;;;8.60;4.80;;;4.90;98.30;;;;;;4201238;28;20335;-79
2021/03/13 09:12:30;;;;;;;5.67;4.63;;;4.90;98.30;;;;;;4197243;28;20247;-79
2021/03/13 09:14:32;;;;;;;6.57;5.03;;;4.90;98.30;;;;;;4202921;28;20594;-80
2021/03/13 09:16:35;;;;;;;5.57;3.78;;;5.00;98.30;;;;;;4206728;28;20263;-80
2021/03/13 09:18:50;;;;;;;5.30;4.67;;;5.00;98.30;;;;;;4204148;28;20233;-80
2021/03/13 09:20:52;;;;;;;5.47;4.90;;;5.00;98.30;;;;;;4198576;28;20478;-80
2021/03/13 09:22:54;;;;;;;10.25;5.18;;;5.00;98.30;;;;;;4203365;28;20491;-80
2021/03/13 09:24:57;;;;;;;5.90;5.22;;;5.00;98.30;;;;;;4197867;28;20217;-80
2021/03/13 09:27:01;;;;;;;6.17;4.83;;;5.10;98.30;;;;;;4183518;28;20320;-81
2021/03/13 09:29:03;;;;;;;6.90;5.63;;;5.10;98.30;;;;;;4204018;28;20489;-80
2021/03/13 09:31:11;;;;;;;6.28;5.30;;;5.10;98.30;;;;;;4202673;28;20785;-80
2021/03/13 09:33:21;;;;;;;5.50;4.30;;;5.10;98.30;;;;;;4206775;28;20232;-81
2021/03/13 09:35:25;;;;;;;5.10;4.50;;;5.20;98.30;;;;;;4204039;28;20490;-79
2021/03/13 09:37:29;;;;;;;5.07;4.57;;;5.20;98.30;;;;;;4201393;28;20576;-80
2021/03/13 09:39:31;;;;;;;6.10;5.13;;;5.20;98.30;;;;;;4194896;28;20497;-79
2021/03/13 09:41:33;;;;;;;9.00;4.97;;;5.30;98.30;;;;;;4197843;28;21048;-79
2021/03/13 09:43:39;;;;;;;5.93;4.50;;;5.40;98.30;;;;;;4202070;28;20495;-80
2021/03/13 09:45:41;;;;;;;6.28;4.70;;;5.40;98.30;;;;;;4199713;28;20488;-80
2021/03/13 09:47:45;;;;;;;5.70;3.37;;;5.50;98.30;;;;;;4199599;28;20622;-79
2021/03/13 09:49:51;;;;;;;5.70;4.70;;;5.50;98.30;;;;;;4199436;28;20493;-80
2021/03/13 09:51:54;;;;;;;6.53;3.90;;;5.60;98.30;;;;;;4195560;28;20483;-79
2021/03/13 09:53:56;;;;;;;4.40;2.90;;;5.60;98.30;;;;;;4201466;28;20813;-80
2021/03/13 09:55:58;;;;;;;3.70;3.30;;;5.60;98.30;;;;;;4199840;28;20474;-80
2021/03/13 09:58:01;;;;;;;3.47;3.17;;;5.60;98.30;;;;;;4202574;28;20585;-80
2021/03/13 10:00:06;;;;;;;2.20;2.00;;;5.60;98.30;;;;;;4201203;28;20478;-79
2021/03/13 10:02:09;;;;;;;2.57;2.37;;;5.70;98.30;;;;;;4202715;28;20582;-80
2021/03/13 10:04:12;;;;;;;2.80;2.40;;;5.70;98.30;;;;;;4207106;28;21286;-80
2021/03/13 10:06:14;;;;;;;2.37;2.10;;;5.70;98.30;;;;;;4199812;28;20486;-80
2021/03/13 10:08:18;;;;;;;2.33;2.13;;;5.70;98.30;;;;;;4202636;28;21008;-81
2021/03/13 10:10:21;;;;;;;3.00;2.50;;;5.70;98.30;;;;;;4197881;28;20540;-80
2021/03/13 10:12:31;;;;;;;2.90;2.03;;;5.70;98.30;;;;;;4201358;28;20521;-80
2021/03/13 10:14:39;;;;;;;2.17;1.90;;;5.70;98.30;;;;;;4202574;28;20540;-80
2021/03/13 10:16:41;;;;;;;6.63;2.10;;;5.70;98.30;;;;;;4200199;28;20567;-80
2021/03/13 10:18:44;;;;;;;2.70;2.50;;;5.80;98.30;;;;;;4201205;28;20488;-80
2021/03/13 10:20:56;;;;;;;2.10;1.90;;;5.80;98.30;;;;;;4204178;28;20527;-80
2021/03/13 10:23:04;;;;;;;4.33;2.13;;;5.80;98.30;;;;;;4209075;28;20483;-80
2021/03/13 10:25:10;;;;;;;3.03;2.40;;;5.90;98.30;;;;;;4200358;28;21043;-81
2021/03/13 10:27:22;;;;;;;4.20;2.30;;;6.20;98.30;;;;;;4210698;28;20525;-80
2021/03/13 10:29:25;;;;;;;3.27;2.50;;;6.60;98.30;;;;;;4205483;28;20517;-80
2021/03/13 10:31:29;;;;;;;2.20;2.00;;;6.90;98.30;;;;;;4206888;28;21136;-80
2021/03/13 10:33:38;;;;;;;5.00;2.30;;;7.20;98.30;;;;;;4203096;28;20525;-81
2021/03/13 10:35:41;;;;;;;2.20;2.00;;;7.50;98.30;;;;;;4204745;28;21098;-80
2021/03/13 10:37:45;;;;;;;7.17;2.50;;;7.50;98.30;;;;;;4202778;28;20481;-80
2021/03/13 10:39:50;;;;;;;2.80;2.03;;;7.50;98.30;;;;;;4207266;28;20559;-80
2021/03/13 10:41:57;;;;;;;4.40;2.17;;;7.60;98.30;;;;;;4205657;28;20562;-80
2021/03/13 10:43:59;;;;;;;2.53;2.33;;;7.70;98.30;;;;;;4202699;28;20525;-80
2021/03/13 10:46:12;;;;;;;5.80;2.83;;;7.70;98.30;;;;;;4204312;28;20485;-80
2021/03/13 10:48:14;;;;;;;4.53;2.50;;;7.90;98.30;;;;;;4198974;28;20457;-80
2021/03/13 10:50:27;;;;;;;6.00;2.77;;;8.00;98.30;;;;;;4203198;28;21246;-80
2021/03/13 10:52:29;;;;;;;3.43;2.03;;;8.30;98.30;;;;;;4202530;28;20479;-80